Time;durP1;ratioP1;P1;durP2;ratioP2;P2;SDS_P1;SDS_P2;PMS_P1;PMS_P2;Temp;Humidity;BMP_temperature;BMP_pressure;BME280_temperature;BME280_humidity;BME280_pressure;Samples;Min_cycle;Max_cycle;Signal;HPM_P1;HPM_P2
2023/10/18 00:00:03;;;;;;;8.63;2.63;;;;;;;10.89;70.87;93609.34;529806;27;1208;-46
2023/10/18 00:00:42;;;;;;;2.55;2.28;;;;;;;11.01;70.95;93619.50;530685;27;836;-46
2023/10/18 00:00:58;;;;;;;3.17;2.30;;;;;;;11.00;70.92;93617.31;530619;27;851;-46
2023/10/18 00:01:13;;;;;;;3.15;2.38;;;;;;;11.01;70.99;93621.53;530608;27;849;-49
2023/10/18 00:01:29;;;;;;;4.73;2.77;;;;;;;10.91;71.03;93607.50;530559;27;951;-47
2023/10/18 00:01:45;;;;;;;4.10;2.67;;;;;;;10.99;70.97;93618.56;530601;27;813;-47
2023/10/18 00:02:00;;;;;;;2.20;2.03;;;;;;;10.73;71.18;93577.41;530574;27;888;-47
2023/10/18 00:02:18;;;;;;;2.45;2.22;;;;;;;11.02;71.04;93620.25;530633;27;813;-47
2023/10/18 00:02:34;;;;;;;3.05;2.40;;;;;;;11.01;70.87;93622.28;530508;27;1021;-46
2023/10/18 00:02:53;;;;;;;2.83;2.42;;;;;;;11.01;70.91;93618.75;530519;27;810;-47
2023/10/18 00:03:09;;;;;;;2.72;2.22;;;;;;;11.02;70.49;93614.72;530515;27;869;-47
2023/10/18 00:03:31;;;;;;;3.13;2.43;;;;;;;11.01;70.57;93621.53;530611;27;829;-47
2023/10/18 00:03:46;;;;;;;2.97;2.50;;;;;;;11.01;70.62;93616.00;530598;27;904;-47
2023/10/18 00:04:01;;;;;;;2.53;2.30;;;;;;;11.00;70.29;93618.03;530498;27;923;-46
2023/10/18 00:04:22;;;;;;;3.40;2.50;;;;;;;10.99;70.32;93619.31;530638;27;821;-47
2023/10/18 00:04:38;;;;;;;3.28;2.47;;;;;;;10.99;70.13;93610.28;530580;27;936;-47
2023/10/18 00:04:53;;;;;;;2.97;2.40;;;;;;;10.94;70.06;93603.63;530547;27;920;-46
2023/10/18 00:05:10;;;;;;;2.33;2.17;;;;;;;10.96;70.30;93612.13;530592;27;888;-46
2023/10/18 00:05:26;;;;;;;2.78;2.35;;;;;;;10.96;70.19;93606.59;530683;27;884;-46
2023/10/18 00:05:41;;;;;;;2.93;2.50;;;;;;;10.68;70.21;93574.28;530495;27;837;-46
2023/10/18 00:05:58;;;;;;;2.78;2.47;;;;;;;10.94;70.28;93603.63;530626;27;833;-47
2023/10/18 00:06:16;;;;;;;2.60;2.20;;;;;;;10.86;70.45;93599.38;530533;27;852;-47
2023/10/18 00:06:32;;;;;;;2.00;1.80;;;;;;;10.94;70.22;93608.41;530563;27;825;-46
2023/10/18 00:06:48;;;;;;;2.47;2.00;;;;;;;10.93;70.39;93604.94;530639;27;907;-49
2023/10/18 00:07:04;;;;;;;2.80;2.30;;;;;;;10.92;70.40;93605.47;530584;27;801;-47
2023/10/18 00:07:20;;;;;;;2.45;2.13;;;;;;;10.93;70.30;93604.19;530604;27;860;-47
2023/10/18 00:07:35;;;;;;;2.47;2.10;;;;;;;10.92;70.21;93602.72;530638;27;896;-47
2023/10/18 00:07:57;;;;;;;2.58;2.30;;;;;;;10.91;70.23;93610.28;530591;27;777;-47
2023/10/18 00:08:12;;;;;;;2.85;2.20;;;;;;;10.85;70.40;93604.16;530558;27;911;-46
2023/10/18 00:08:28;;;;;;;2.80;2.20;;;;;;;10.91;70.28;93610.28;530589;27;877;-46
2023/10/18 00:08:45;;;;;;;2.67;2.40;;;;;;;10.82;70.47;93591.47;530610;27;869;-47
2023/10/18 00:09:38;;;;;;;2.60;2.40;;;;;;;10.82;70.53;93596.22;530557;27;887;-46
2023/10/18 00:09:42;;;;;;;2.28;1.92;;;;;;;10.91;70.95;93604.75;530512;27;843;-46
2023/10/18 00:09:58;;;;;;;2.33;1.83;;;;;;;10.90;71.08;93606.03;530642;27;923;-46
2023/10/18 00:10:17;;;;;;;4.15;2.15;;;;;;;10.89;70.97;93601.06;530607;27;867;-46
2023/10/18 00:10:33;;;;;;;3.90;2.40;;;;;;;10.91;70.78;93610.28;530573;27;1534;-46
2023/10/18 00:10:53;;;;;;;2.65;2.30;;;;;;;10.81;71.07;93598.25;530650;27;954;-46
2023/10/18 00:11:08;;;;;;;2.00;1.90;;;;;;;10.91;71.11;93615.06;530553;27;853;-46
2023/10/18 00:11:25;;;;;;;2.30;1.77;;;;;;;10.90;70.96;93608.03;530572;27;868;-48
2023/10/18 00:11:41;;;;;;;2.42;1.90;;;;;;;10.89;71.27;93601.06;530493;27;904;-46
2023/10/18 00:11:57;;;;;;;2.40;2.20;;;;;;;10.88;71.08;93605.09;530580;27;1633;-46
2023/10/18 00:12:16;;;;;;;3.47;2.20;;;;;;;10.88;71.30;93605.09;530500;27;887;-46
2023/10/18 00:12:34;;;;;;;3.83;1.90;;;;;;;10.87;71.56;93609.16;530418;27;943;-47
2023/10/18 00:12:52;;;;;;;2.03;1.83;;;;;;;10.77;71.51;93597.13;530590;27;848;-47
2023/10/18 00:13:08;;;;;;;2.10;1.90;;;;;;;10.84;71.22;93610.97;530547;27;853;-45
2023/10/18 00:13:24;;;;;;;2.25;2.05;;;;;;;10.82;71.49;93610.78;530499;27;923;-47
2023/10/18 00:13:39;;;;;;;2.28;2.10;;;;;;;10.80;71.37;93605.06;530633;27;801;-47
2023/10/18 00:13:54;;;;;;;2.70;2.20;;;;;;;10.79;71.60;93608.38;530621;27;808;-48
2023/10/18 00:14:10;;;;;;;2.35;2.00;;;;;;;10.76;72.02;93610.22;530503;27;847;-47
2023/10/18 00:14:25;;;;;;;1.73;1.63;;;;;;;10.76;71.86;93610.22;530583;27;825;-47
2023/10/18 00:14:41;;;;;;;2.15;1.80;;;;;;;10.76;71.85;93604.69;530504;27;1922;-47
2023/10/18 00:14:57;;;;;;;2.05;1.73;;;;;;;10.78;72.25;93612.44;530535;27;920;-47
2023/10/18 00:15:12;;;;;;;2.03;1.80;;;;;;;10.77;72.00;93602.66;530555;27;789;-47
2023/10/18 00:15:27;;;;;;;2.10;1.87;;;;;;;10.80;71.91;93607.09;530636;27;856;-46
2023/10/18 00:15:43;;;;;;;2.22;1.83;;;;;;;10.81;71.87;93603.03;530572;27;788;-46
2023/10/18 00:16:05;;;;;;;2.27;1.87;;;;;;;10.83;71.81;93608.78;530528;27;883;-46
2023/10/18 00:16:24;;;;;;;2.90;2.05;;;;;;;10.84;71.99;93608.22;530527;27;893;-50
2023/10/18 00:16:39;;;;;;;2.50;2.13;;;;;;;10.82;71.98;93607.28;530386;27;1001;-47
2023/10/18 00:16:54;;;;;;;2.13;1.93;;;;;;;10.86;71.63;93608.41;530544;27;829;-47
2023/10/18 00:17:11;;;;;;;2.58;1.92;;;;;;;10.87;71.73;93600.88;530541;27;851;-46
2023/10/18 00:17:26;;;;;;;3.00;2.08;;;;;;;10.79;71.99;93591.78;530537;27;1054;-47
2023/10/18 00:17:41;;;;;;;2.57;2.00;;;;;;;10.88;71.65;93605.84;530318;27;774;-46
2023/10/18 00:17:57;;;;;;;2.93;2.10;;;;;;;10.89;71.56;93612.09;530538;27;1571;-46
2023/10/18 00:18:12;;;;;;;3.38;2.22;;;;;;;10.68;71.84;93574.28;530492;27;863;-46
2023/10/18 00:18:28;;;;;;;2.30;1.83;;;;;;;10.90;71.59;93603.25;530581;27;849;-46
2023/10/18 00:18:43;;;;;;;2.33;1.73;;;;;;;10.90;71.46;93602.50;530467;27;892;-47
2023/10/18 00:18:59;;;;;;;3.17;2.20;;;;;;;10.91;71.29;93602.00;530559;27;1549;-46
2023/10/18 00:19:14;;;;;;;2.70;2.30;;;;;;;10.92;71.50;93611.00;530490;27;861;-47
2023/10/18 00:19:29;;;;;;;2.50;2.30;;;;;;;10.89;71.71;93604.56;530516;27;919;-47
2023/10/18 00:19:45;;;;;;;2.43;2.20;;;;;;;10.93;71.34;93613.22;530568;27;837;-46
2023/10/18 00:20:00;;;;;;;2.28;2.08;;;;;;;10.94;71.36;93608.41;530538;27;855;-47
2023/10/18 00:20:16;;;;;;;5.27;2.47;;;;;;;10.93;71.31;93602.19;530562;27;833;-46
2023/10/18 00:20:31;;;;;;;7.13;2.42;;;;;;;10.95;71.57;93609.91;530461;27;888;-46
2023/10/18 00:20:47;;;;;;;2.70;2.10;;;;;;;10.95;71.46;93609.91;530611;27;848;-46
2023/10/18 00:21:04;;;;;;;2.58;2.10;;;;;;;10.96;71.42;93606.59;530524;27;1121;-46
2023/10/18 00:21:20;;;;;;;2.97;2.25;;;;;;;10.96;71.34;93605.88;530621;27;895;-47
2023/10/18 00:21:36;;;;;;;2.83;2.40;;;;;;;10.97;71.35;93610.09;530601;27;875;-46
2023/10/18 00:21:55;;;;;;;2.40;2.20;;;;;;;10.96;71.53;93608.63;530549;27;777;-48
2023/10/18 00:22:11;;;;;;;2.20;2.00;;;;;;;10.96;71.47;93603.13;530474;27;899;-46
2023/10/18 00:22:27;;;;;;;2.63;2.25;;;;;;;10.87;71.44;93589.81;530535;27;920;-47
2023/10/18 00:22:43;;;;;;;3.75;2.58;;;;;;;10.95;70.99;93601.63;530485;27;868;-47
2023/10/18 00:22:59;;;;;;;3.75;2.58;;;;;;;10.97;71.21;93608.09;530577;27;809;-47
2023/10/18 00:23:14;;;;;;;3.10;2.27;;;;;;;10.96;71.12;93598.31;530445;27;832;-47
2023/10/18 00:23:33;;;;;;;2.53;2.10;;;;;;;10.98;71.16;93604.03;530581;27;871;-47
2023/10/18 00:23:48;;;;;;;3.38;2.45;;;;;;;10.79;71.22;93572.47;528638;27;1216;-45
2023/10/18 00:24:04;;;;;;;2.97;2.50;;;;;;;10.99;71.27;93604.75;527791;28;1125;-46
2023/10/18 00:24:19;;;;;;;4.00;2.70;;;;;;;10.99;70.80;93602.00;528946;27;1279;-47
2023/10/18 00:24:37;;;;;;;3.83;2.60;;;;;;;10.98;71.13;93597.78;530583;27;800;-46
2023/10/18 00:24:52;;;;;;;3.42;2.53;;;;;;;10.99;70.65;93605.50;530498;27;1100;-47
2023/10/18 00:25:08;;;;;;;3.67;2.67;;;;;;;10.99;70.90;93604.75;530608;27;761;-46
2023/10/18 00:25:23;;;;;;;3.35;2.90;;;;;;;10.99;70.79;93599.25;530500;27;887;-46
2023/10/18 00:25:39;;;;;;;3.33;2.87;;;;;;;10.97;70.85;93602.56;530561;27;978;-46
2023/10/18 00:25:54;;;;;;;2.87;2.50;;;;;;;10.98;70.80;93603.31;530499;27;936;-45
2023/10/18 00:26:11;;;;;;;3.00;2.58;;;;;;;10.98;70.99;93601.25;530343;27;1134;-47
2023/10/18 00:26:26;;;;;;;3.58;2.83;;;;;;;10.99;71.04;93602.00;530585;27;1104;-46
2023/10/18 00:26:41;;;;;;;3.60;2.88;;;;;;;10.99;70.79;93599.97;530530;27;859;-46
2023/10/18 00:26:57;;;;;;;3.17;2.83;;;;;;;10.99;70.87;93602.75;530598;27;832;-47
2023/10/18 00:27:13;;;;;;;3.35;3.03;;;;;;;10.99;70.77;93599.25;530462;27;1167;-46
2023/10/18 00:27:28;;;;;;;3.30;3.00;;;;;;;10.98;70.82;93600.53;530527;27;825;-46
2023/10/18 00:27:47;;;;;;;3.13;2.83;;;;;;;10.97;70.98;93602.56;530510;27;887;-47
2023/10/18 00:28:03;;;;;;;3.33;2.88;;;;;;;10.94;70.97;93598.13;530475;27;801;-46
2023/10/18 00:28:22;;;;;;;4.00;2.90;;;;;;;10.98;70.86;93603.31;530548;27;840;-46
2023/10/18 00:28:38;;;;;;;3.65;2.67;;;;;;;10.98;71.06;93603.31;530605;27;860;-46
2023/10/18 00:28:53;;;;;;;3.70;2.70;;;;;;;10.99;71.19;93604.75;530434;27;885;-46
2023/10/18 00:29:09;;;;;;;3.60;2.65;;;;;;;10.99;70.91;93607.53;530493;27;889;-46
2023/10/18 00:29:24;;;;;;;3.33;2.60;;;;;;;11.01;70.69;93607.72;530527;27;841;-47
2023/10/18 00:29:39;;;;;;;2.88;2.58;;;;;;;10.99;70.67;93605.50;530584;27;867;-46
2023/10/18 00:29:57;;;;;;;4.90;3.03;;;;;;;11.00;70.75;93604.22;530512;27;829;-47
2023/10/18 00:30:13;;;;;;;5.22;3.13;;;;;;;11.00;70.68;93604.22;530559;27;829;-46
2023/10/18 00:30:30;;;;;;;3.40;2.75;;;;;;;11.00;70.86;93611.78;530532;27;873;-47
2023/10/18 00:30:46;;;;;;;3.42;2.70;;;;;;;10.99;70.91;93607.53;530534;27;907;-47
2023/10/18 00:31:18;;;;;;;2.88;2.38;;;;;;;10.96;71.06;93598.31;530530;27;899;-47
2023/10/18 00:31:33;;;;;;;2.75;2.33;;;;;;;10.98;70.85;93606.06;530463;27;939;-47
2023/10/18 00:31:48;;;;;;;3.47;2.50;;;;;;;10.95;71.17;93599.59;530565;27;943;-46
2023/10/18 00:32:05;;;;;;;3.60;2.40;;;;;;;10.94;71.04;93597.38;530460;27;837;-46
2023/10/18 00:32:20;;;;;;;3.28;2.15;;;;;;;10.97;71.11;93601.81;530528;27;904;-47
2023/10/18 00:32:36;;;;;;;2.95;2.13;;;;;;;10.97;71.21;93605.31;530533;27;913;-46
2023/10/18 00:32:51;;;;;;;3.00;2.23;;;;;;;10.98;70.92;93608.81;530522;27;1165;-46
2023/10/18 00:33:07;;;;;;;3.53;2.45;;;;;;;10.98;71.11;93604.03;530457;27;872;-46
2023/10/18 00:33:22;;;;;;;3.90;2.30;;;;;;;10.98;71.16;93606.78;530514;27;899;-46
2023/10/18 00:33:39;;;;;;;3.13;1.97;;;;;;;10.98;71.09;93600.53;530641;27;746;-46
2023/10/18 00:33:54;;;;;;;2.72;1.80;;;;;;;10.99;71.01;93604.75;530469;27;1106;-46
2023/10/18 00:34:12;;;;;;;2.20;1.70;;;;;;;10.98;70.78;93604.03;530504;27;880;-47
2023/10/18 00:34:28;;;;;;;1.80;1.70;;;;;;;10.94;70.95;93598.13;530468;27;1643;-48
2023/10/18 00:34:43;;;;;;;3.15;1.70;;;;;;;10.76;70.84;93577.09;530422;27;1962;-46
2023/10/18 00:34:59;;;;;;;4.20;1.90;;;;;;;10.97;70.84;93602.56;530499;27;963;-47
2023/10/18 00:35:20;;;;;;;3.08;1.83;;;;;;;10.93;70.89;93602.19;530415;27;2412;-46
2023/10/18 00:35:36;;;;;;;2.28;1.95;;;;;;;10.89;70.79;93601.06;528457;28;872;-47
2023/10/18 00:35:57;;;;;;;2.40;2.20;;;;;;;10.92;71.16;93600.69;528425;28;824;-46
2023/10/18 00:36:16;;;;;;;2.38;2.17;;;;;;;10.94;70.88;93605.66;528342;28;881;-46
2023/10/18 00:36:33;;;;;;;2.10;1.90;;;;;;;10.89;71.05;93590.00;528431;28;987;-46
2023/10/18 00:36:49;;;;;;;2.20;2.00;;;;;;;10.94;71.04;93603.63;528445;28;910;-46
2023/10/18 00:37:06;;;;;;;2.08;1.90;;;;;;;10.92;71.11;93606.22;528318;28;861;-47
2023/10/18 00:37:25;;;;;;;2.17;1.92;;;;;;;10.93;71.11;93604.94;528336;28;964;-47
2023/10/18 00:37:44;;;;;;;3.13;2.35;;;;;;;10.83;71.09;93584.63;528441;28;1376;-46
2023/10/18 00:37:59;;;;;;;2.83;2.33;;;;;;;10.94;71.22;93598.13;528370;28;961;-47
2023/10/18 00:38:18;;;;;;;2.40;2.20;;;;;;;10.96;70.81;93601.06;528311;28;1682;-46
2023/10/18 00:38:33;;;;;;;2.95;2.60;;;;;;;10.97;70.91;93601.81;528394;28;951;-46
2023/10/18 00:38:49;;;;;;;3.93;2.80;;;;;;;10.97;70.54;93602.56;526101;28;1519;-47
2023/10/18 00:39:21;;;;;;;4.07;2.70;;;;;;;10.96;70.65;93603.84;526052;28;868;-46
2023/10/18 00:39:36;;;;;;;2.65;2.28;;;;;;;10.98;70.61;93604.03;526124;28;945;-45
2023/10/18 00:39:52;;;;;;;3.77;2.47;;;;;;;10.97;70.93;93597.03;526069;28;931;-46
2023/10/18 00:40:50;;;;;;;2.78;2.30;;;;;;;10.99;70.60;93605.50;527181;28;745;-49
2023/10/18 00:41:14;;;;;;;3.90;2.40;;;;;;;10.99;70.50;93604.75;528374;28;872;-47
2023/10/18 00:41:32;;;;;;;3.05;2.10;;;;;;;11.01;70.93;93602.94;528403;28;927;-47
2023/10/18 00:41:54;;;;;;;2.50;2.30;;;;;;;10.95;70.56;93590.56;528359;28;865;-46
2023/10/18 00:42:28;;;;;;;2.70;2.45;;;;;;;11.01;70.62;93600.16;528437;28;1016;-48
2023/10/18 00:42:44;;;;;;;2.50;2.20;;;;;;;11.02;70.89;93606.44;528311;28;858;-46
2023/10/18 00:43:22;;;;;;;2.58;2.20;;;;;;;11.02;70.75;93598.16;528431;28;859;-48
2023/10/18 00:43:37;;;;;;;4.13;2.20;;;;;;;11.03;70.91;93602.38;528321;28;903;-47
2023/10/18 00:43:52;;;;;;;3.35;2.10;;;;;;;11.02;70.75;93596.09;528346;28;909;-46
2023/10/18 00:44:11;;;;;;;2.60;2.40;;;;;;;10.81;70.65;93567.88;528425;28;793;-46
2023/10/18 00:44:27;;;;;;;3.33;2.60;;;;;;;10.95;70.68;93588.56;528398;28;847;-47
2023/10/18 00:44:43;;;;;;;3.78;2.35;;;;;;;10.99;70.73;93597.22;528399;28;805;-47
2023/10/18 00:45:08;;;;;;;2.90;2.27;;;;;;;11.03;71.02;93603.13;528378;28;925;-47
2023/10/18 00:45:24;;;;;;;2.40;2.20;;;;;;;11.03;70.83;93607.91;528358;28;988;-46
2023/10/18 00:45:44;;;;;;;2.20;2.00;;;;;;;11.02;70.82;93600.91;528428;28;840;-46
2023/10/18 00:45:59;;;;;;;2.33;2.13;;;;;;;11.01;70.71;93599.44;528337;28;840;-46
2023/10/18 00:46:15;;;;;;;2.67;2.40;;;;;;;11.01;70.65;93596.66;526049;28;838;-47
2023/10/18 00:46:30;;;;;;;2.57;2.20;;;;;;;11.01;70.53;93597.41;526105;28;896;-47
2023/10/18 00:46:46;;;;;;;2.47;1.92;;;;;;;10.94;70.34;93589.09;526154;28;947;-48
2023/10/18 00:47:02;;;;;;;2.47;2.20;;;;;;;11.03;70.49;93596.84;526144;28;849;-47
2023/10/18 00:47:17;;;;;;;2.42;2.22;;;;;;;11.03;70.59;93599.63;526142;28;940;-47
2023/10/18 00:47:33;;;;;;;2.17;2.00;;;;;;;11.03;70.82;93599.63;526011;28;924;-45
2023/10/18 00:47:48;;;;;;;2.08;1.88;;;;;;;11.01;70.69;93597.41;526212;28;833;-46
2023/10/18 00:48:06;;;;;;;2.07;1.80;;;;;;;11.02;70.64;93595.38;526056;28;901;-46
2023/10/18 00:48:24;;;;;;;1.90;1.80;;;;;;;11.02;70.42;93600.91;526000;28;921;-46
2023/10/18 00:48:40;;;;;;;2.20;1.88;;;;;;;11.02;70.44;93592.63;526182;28;824;-46
2023/10/18 00:48:56;;;;;;;2.92;1.95;;;;;;;11.00;70.62;93595.91;526128;28;968;-46
2023/10/18 00:49:14;;;;;;;2.30;1.80;;;;;;;11.01;70.58;93602.19;527347;28;1137;-46
2023/10/18 00:49:29;;;;;;;2.97;2.00;;;;;;;11.02;70.29;93600.91;528256;28;892;-46
2023/10/18 00:49:47;;;;;;;2.85;2.00;;;;;;;11.01;70.58;93600.16;528219;28;899;-46
2023/10/18 00:50:03;;;;;;;2.20;2.00;;;;;;;11.01;70.49;93602.94;530039;27;943;-46
2023/10/18 00:50:27;;;;;;;2.03;1.83;;;;;;;11.02;70.33;93600.91;530576;27;1051;-47
2023/10/18 00:50:43;;;;;;;1.83;1.70;;;;;;;11.00;70.56;93593.16;528131;28;845;-47
2023/10/18 00:50:59;;;;;;;2.05;1.80;;;;;;;11.02;70.41;93598.16;528245;28;905;-47
2023/10/18 00:51:16;;;;;;;2.07;1.70;;;;;;;11.01;70.38;93597.41;528196;28;864;-46
2023/10/18 00:51:32;;;;;;;2.72;1.65;;;;;;;11.02;70.45;93598.16;528270;28;855;-47
2023/10/18 00:51:48;;;;;;;3.03;1.98;;;;;;;11.03;70.25;93594.09;528208;28;894;-47
2023/10/18 00:52:05;;;;;;;2.72;2.05;;;;;;;10.82;70.36;93568.63;526057;28;841;-46
2023/10/18 00:52:28;;;;;;;2.58;1.80;;;;;;;11.02;70.76;93601.63;526238;28;923;-47
2023/10/18 00:52:44;;;;;;;2.22;2.03;;;;;;;11.03;70.51;93597.59;528193;28;899;-46
2023/10/18 00:53:00;;;;;;;2.15;1.95;;;;;;;10.99;70.53;93593.72;528234;28;848;-47
2023/10/18 00:53:25;;;;;;;2.08;1.88;;;;;;;11.02;70.65;93598.16;528264;28;861;-47
2023/10/18 00:53:42;;;;;;;2.10;1.90;;;;;;;11.01;70.83;93602.94;528165;28;837;-47
2023/10/18 00:53:57;;;;;;;1.75;1.65;;;;;;;10.93;70.67;93585.59;527233;28;916;-47
2023/10/18 00:54:14;;;;;;;1.50;1.40;;;;;;;11.02;70.86;93603.69;528130;28;865;-46
2023/10/18 00:54:29;;;;;;;1.80;1.70;;;;;;;10.97;70.91;93593.53;526151;28;939;-46
2023/10/18 00:54:45;;;;;;;1.90;1.80;;;;;;;10.92;71.08;93588.91;526002;28;1918;-47
2023/10/18 00:55:01;;;;;;;1.80;1.70;;;;;;;11.01;71.29;93602.94;526181;28;988;-46
2023/10/18 00:55:16;;;;;;;1.70;1.58;;;;;;;10.92;71.26;93586.88;526108;28;867;-46
2023/10/18 00:55:32;;;;;;;1.80;1.70;;;;;;;11.01;70.94;93596.66;526075;28;889;-46
2023/10/18 00:55:53;;;;;;;1.90;1.80;;;;;;;11.00;71.25;93601.44;527063;28;1625;-47
2023/10/18 00:56:11;;;;;;;2.55;2.10;;;;;;;10.82;71.10;93569.34;528176;28;901;-47
2023/10/18 00:56:26;;;;;;;3.00;2.03;;;;;;;11.01;71.27;93597.41;530077;27;830;-46
2023/10/18 00:56:46;;;;;;;1.67;1.58;;;;;;;11.00;70.99;93595.91;528225;28;829;-48
2023/10/18 00:57:02;;;;;;;2.30;1.70;;;;;;;11.00;71.20;93595.91;528195;28;876;-46
2023/10/18 00:57:24;;;;;;;2.33;1.50;;;;;;;11.00;71.08;93595.91;528307;28;774;-46
2023/10/18 00:57:40;;;;;;;2.60;1.90;;;;;;;11.01;71.17;93596.66;528224;28;899;-46
2023/10/18 00:57:58;;;;;;;2.10;1.90;;;;;;;11.00;71.14;93593.16;528238;28;813;-46
2023/10/18 00:58:15;;;;;;;2.35;2.10;;;;;;;10.78;70.78;93557.19;528185;28;837;-46
2023/10/18 00:58:32;;;;;;;2.85;2.15;;;;;;;10.95;70.88;93593.34;526360;28;1569;-46
2023/10/18 00:58:48;;;;;;;2.28;1.98;;;;;;;10.95;70.97;93594.09;528283;28;993;-46
2023/10/18 00:59:07;;;;;;;2.00;1.80;;;;;;;10.94;71.18;93587.06;528207;28;825;-46
2023/10/18 00:59:26;;;;;;;2.25;2.03;;;;;;;10.95;71.19;93591.31;528164;28;879;-46
2023/10/18 00:59:41;;;;;;;2.55;1.90;;;;;;;10.96;71.51;93592.78;528215;28;911;-47
2023/10/18 00:59:57;;;;;;;2.40;1.77;;;;;;;10.96;71.29;93583.78;528174;28;1544;-46
2023/10/18 01:00:18;;;;;;;2.03;1.58;;;;;;;10.95;71.21;93585.78;528152;28;856;-47
2023/10/18 01:00:37;;;;;;;1.67;1.58;;;;;;;10.98;71.58;93586.72;530476;27;844;-46
2023/10/18 01:00:52;;;;;;;1.80;1.70;;;;;;;10.98;71.27;93589.50;530468;27;947;-48
2023/10/18 01:01:11;;;;;;;2.50;2.10;;;;;;;10.98;71.34;93587.44;528160;28;1011;-47
2023/10/18 01:01:26;;;;;;;2.55;2.08;;;;;;;10.99;71.16;93588.19;528255;28;888;-46
2023/10/18 01:01:44;;;;;;;2.00;1.70;;;;;;;10.98;71.19;93589.50;528225;28;817;-47
2023/10/18 01:02:03;;;;;;;2.10;1.67;;;;;;;10.97;71.20;93585.97;526097;28;1266;-46
2023/10/18 01:02:19;;;;;;;2.10;1.98;;;;;;;10.96;71.53;93581.72;526139;28;959;-47
2023/10/18 01:02:39;;;;;;;1.92;1.80;;;;;;;10.99;71.21;93588.19;526098;28;880;-46
2023/10/18 01:02:59;;;;;;;2.67;1.80;;;;;;;10.98;71.25;93587.44;526205;28;864;-47
2023/10/18 01:03:28;;;;;;;3.00;2.03;;;;;;;10.99;71.01;93590.94;526081;28;916;-48
2023/10/18 01:03:50;;;;;;;2.50;1.65;;;;;;;10.98;70.99;93589.50;526036;28;834;-47
2023/10/18 01:04:05;;;;;;;1.42;1.30;;;;;;;10.97;70.76;93585.97;526080;28;895;-46
2023/10/18 01:04:24;;;;;;;2.17;1.73;;;;;;;10.97;70.94;93585.97;526026;28;912;-48
2023/10/18 01:04:41;;;;;;;2.22;2.03;;;;;;;10.97;70.68;93585.97;526544;28;849;-47
2023/10/18 01:04:56;;;;;;;1.98;1.77;;;;;;;10.98;70.74;93595.00;528242;28;939;-46
2023/10/18 01:05:11;;;;;;;1.88;1.70;;;;;;;10.97;70.94;93590.75;530427;27;781;-47
2023/10/18 01:05:28;;;;;;;1.80;1.70;;;;;;;10.92;71.01;93583.38;530547;27;871;-47
2023/10/18 01:05:57;;;;;;;1.70;1.60;;;;;;;10.98;71.20;93592.25;530425;27;841;-47
2023/10/18 01:06:20;;;;;;;1.80;1.65;;;;;;;10.96;71.05;93590.03;530407;27;857;-46
2023/10/18 01:06:36;;;;;;;1.67;1.58;;;;;;;10.98;71.12;93595.00;530453;27;1652;-46
2023/10/18 01:06:51;;;;;;;1.90;1.70;;;;;;;10.97;71.13;93591.50;530364;27;943;-46
2023/10/18 01:07:15;;;;;;;2.60;1.87;;;;;;;10.99;71.03;93590.94;530522;27;852;-46
2023/10/18 01:07:30;;;;;;;2.40;1.83;;;;;;;10.98;71.69;93587.44;530439;27;864;-47
2023/10/18 01:07:52;;;;;;;1.77;1.67;;;;;;;10.96;71.35;93587.25;530463;27;967;-47
2023/10/18 01:08:10;;;;;;;2.08;1.83;;;;;;;11.00;71.30;93584.16;530432;27;905;-47
2023/10/18 01:08:29;;;;;;;2.17;1.92;;;;;;;10.93;71.14;93584.88;530512;27;824;-46
2023/10/18 01:08:47;;;;;;;2.15;1.95;;;;;;;10.97;71.44;93579.72;528082;28;840;-47
2023/10/18 01:09:03;;;;;;;2.28;2.05;;;;;;;10.91;71.24;93571.59;528193;28;891;-46
2023/10/18 01:09:20;;;;;;;2.30;2.10;;;;;;;11.02;71.44;93598.88;528254;28;814;-49
2023/10/18 01:09:36;;;;;;;2.60;2.00;;;;;;;11.02;71.38;93589.88;528109;28;874;-47
2023/10/18 01:09:53;;;;;;;2.30;1.90;;;;;;;11.02;71.26;93590.59;528136;28;884;-47
2023/10/18 01:10:09;;;;;;;2.03;1.83;;;;;;;11.03;71.51;93585.81;528242;28;884;-46
2023/10/18 01:10:25;;;;;;;2.22;1.85;;;;;;;11.01;71.70;93583.59;528170;28;837;-46
2023/10/18 01:10:42;;;;;;;2.20;1.90;;;;;;;10.98;71.63;93578.44;530110;27;816;-46
2023/10/18 01:11:04;;;;;;;3.55;2.17;;;;;;;11.05;71.18;93592.25;530508;27;893;-47
2023/10/18 01:11:30;;;;;;;3.03;2.42;;;;;;;11.05;71.47;93592.25;528181;28;881;-47
2023/10/18 01:11:46;;;;;;;2.30;2.10;;;;;;;10.95;71.43;93571.25;528198;28;912;-47
2023/10/18 01:12:02;;;;;;;2.40;2.20;;;;;;;11.07;71.19;93586.19;528184;28;781;-46
2023/10/18 01:12:18;;;;;;;2.47;2.28;;;;;;;11.07;71.26;93586.91;528266;28;852;-48
2023/10/18 01:12:40;;;;;;;2.90;2.47;;;;;;;11.07;71.35;93594.47;528191;28;801;-47
2023/10/18 01:12:55;;;;;;;2.90;2.60;;;;;;;11.08;71.26;93590.44;528137;28;925;-47
2023/10/18 01:13:11;;;;;;;2.73;2.50;;;;;;;11.07;71.06;93581.41;529710;27;889;-46
2023/10/18 01:13:26;;;;;;;3.20;2.50;;;;;;;11.06;71.13;93582.69;530387;27;834;-48
2023/10/18 01:13:43;;;;;;;4.20;2.33;;;;;;;11.08;70.99;93590.44;530373;27;928;-46
2023/10/18 01:14:00;;;;;;;3.20;1.98;;;;;;;10.99;71.26;93577.13;530502;27;951;-45
2023/10/18 01:14:18;;;;;;;2.90;2.42;;;;;;;11.06;71.22;93590.25;530425;27;928;-46
2023/10/18 01:14:34;;;;;;;5.97;2.60;;;;;;;11.02;70.86;93581.56;530415;27;793;-46
2023/10/18 01:14:50;;;;;;;5.53;2.40;;;;;;;11.07;70.99;93577.88;530405;27;1981;-47
2023/10/18 01:15:06;;;;;;;2.42;2.20;;;;;;;11.08;71.27;93590.44;530446;27;797;-47
2023/10/18 01:15:22;;;;;;;2.42;2.22;;;;;;;11.09;70.95;93589.13;530416;27;918;-47
2023/10/18 01:15:37;;;;;;;2.67;2.47;;;;;;;11.08;71.16;93587.66;530426;27;830;-46
2023/10/18 01:15:53;;;;;;;2.97;2.35;;;;;;;11.09;71.22;93589.13;530458;27;844;-48
2023/10/18 01:16:21;;;;;;;2.60;2.20;;;;;;;11.09;71.05;93587.09;530489;27;793;-47
2023/10/18 01:16:37;;;;;;;2.63;2.28;;;;;;;11.08;71.23;93579.38;530406;27;877;-46
2023/10/18 01:16:56;;;;;;;3.47;2.22;;;;;;;11.06;71.18;93582.69;530373;27;832;-47
2023/10/18 01:17:13;;;;;;;3.90;2.42;;;;;;;11.08;71.13;93591.19;530337;27;923;-46
2023/10/18 01:17:29;;;;;;;2.50;2.30;;;;;;;11.06;71.19;93584.72;530498;27;833;-45
2023/10/18 01:17:45;;;;;;;3.35;2.40;;;;;;;11.08;71.16;93591.19;530241;27;896;-46
2023/10/18 01:18:00;;;;;;;3.35;2.47;;;;;;;11.08;71.23;93582.13;530424;27;832;-47
2023/10/18 01:18:18;;;;;;;2.40;2.20;;;;;;;11.02;71.02;93579.53;530425;27;844;-46
2023/10/18 01:18:33;;;;;;;2.50;2.00;;;;;;;10.88;71.28;93550.59;530476;27;817;-46
2023/10/18 01:18:50;;;;;;;2.93;2.40;;;;;;;11.09;71.34;93586.38;530359;27;888;-46
2023/10/18 01:19:08;;;;;;;2.67;2.35;;;;;;;11.10;71.07;93582.31;530378;27;933;-47
2023/10/18 01:19:23;;;;;;;6.10;2.30;;;;;;;11.10;71.23;93579.56;530399;27;892;-48
2023/10/18 01:19:40;;;;;;;6.60;2.47;;;;;;;11.10;71.05;93582.31;530498;27;821;-47
2023/10/18 01:19:58;;;;;;;3.05;2.40;;;;;;;11.07;71.19;93577.88;530485;27;1093;-47
2023/10/18 01:20:39;;;;;;;3.05;2.67;;;;;;;11.10;71.16;93583.06;530397;27;857;-46
2023/10/18 01:20:49;;;;;;;4.68;3.35;;;;;;;11.10;71.36;93579.56;529996;27;1563;-48
2023/10/18 01:21:33;;;;;;;4.37;3.37;;;;;;;11.09;71.18;93576.06;530365;27;856;-46
2023/10/18 01:21:52;;;;;;;5.15;4.28;;;;;;;11.09;71.34;93572.53;528126;28;923;-48
2023/10/18 01:22:07;;;;;;;4.75;4.28;;;;;;;11.03;71.69;93574.75;528142;28;892;-47
2023/10/18 01:22:23;;;;;;;5.65;4.95;;;;;;;11.07;71.25;93577.88;528147;28;884;-46
2023/10/18 01:22:39;;;;;;;6.88;5.15;;;;;;;11.07;71.26;93569.59;528204;28;829;-47
2023/10/18 01:22:55;;;;;;;5.63;4.43;;;;;;;11.05;71.27;93572.91;528022;28;1092;-46
2023/10/18 01:23:11;;;;;;;4.90;4.18;;;;;;;11.06;71.34;93571.66;528061;28;945;-47
2023/10/18 01:23:27;;;;;;;5.30;4.28;;;;;;;11.06;71.19;93574.41;528146;28;931;-46
2023/10/18 01:23:49;;;;;;;5.53;4.57;;;;;;;11.02;70.96;93565.00;528181;28;1145;-48
2023/10/18 01:24:13;;;;;;;6.00;4.63;;;;;;;11.05;71.54;93574.94;525474;28;1558;-48
2023/10/18 01:24:34;;;;;;;6.93;4.60;;;;;;;11.06;71.19;93570.91;527929;28;1308;-46
2023/10/18 01:24:50;;;;;;;5.22;4.40;;;;;;;10.96;71.04;93553.38;528080;28;904;-46
2023/10/18 01:25:09;;;;;;;4.30;3.90;;;;;;;11.05;71.08;93570.16;528201;28;881;-47
2023/10/18 01:25:25;;;;;;;5.20;4.40;;;;;;;11.06;71.12;93574.41;528057;28;1145;-47
2023/10/18 01:25:41;;;;;;;5.28;4.78;;;;;;;11.05;71.25;93572.16;528117;28;920;-47
2023/10/18 01:25:56;;;;;;;4.70;4.20;;;;;;;11.06;71.30;93576.44;529348;27;845;-46
2023/10/18 01:26:13;;;;;;;4.78;3.83;;;;;;;10.97;70.95;93554.84;530255;27;1150;-46